Time;durP1;ratioP1;P1;durP2;ratioP2;P2;SDS_P1;SDS_P2;PMS_P1;PMS_P2;Temp;Humidity;BMP_temperature;BMP_pressure;BME280_temperature;BME280_humidity;BME280_pressure;Samples;Min_cycle;Max_cycle;Signal;HPM_P1;HPM_P2
2022/01/29 00:00:35;;;;;;;8.13;4.33;;;;;;;1.61;100.00;96841.44;5099153;28;20232;-48
2022/01/29 00:03:00;;;;;;;6.60;4.37;;;;;;;1.64;100.00;96840.81;5116073;28;20204;-51
2022/01/29 00:05:25;;;;;;;9.40;4.77;;;;;;;1.65;100.00;96842.41;5098887;28;20193;-48
2022/01/29 00:07:51;;;;;;;9.37;4.67;;;;;;;1.68;100.00;96824.84;5116301;28;20168;-54
2022/01/29 00:10:16;;;;;;;7.37;4.60;;;;;;;1.67;100.00;96821.34;5098952;28;20209;-54
2022/01/29 00:12:42;;;;;;;6.97;4.63;;;;;;;1.68;100.00;96811.38;5098600;28;20207;-55
2022/01/29 00:15:08;;;;;;;7.60;4.73;;;;;;;1.71;100.00;96813.47;5115652;28;20193;-54
2022/01/29 00:17:34;;;;;;;7.87;4.57;;;;;;;1.69;100.00;96805.69;5098400;28;20186;-55
2022/01/29 00:19:59;;;;;;;6.17;4.83;;;;;;;1.71;100.00;96803.47;5098692;28;20225;-55
2022/01/29 00:22:25;;;;;;;7.43;4.70;;;;;;;1.77;100.00;96801.44;5098485;28;20249;-55
2022/01/29 00:24:51;;;;;;;8.80;4.80;;;;;;;1.75;100.00;96790.97;5115435;28;20232;-54
2022/01/29 00:27:18;;;;;;;7.67;5.13;;;;;;;1.75;100.00;96796.34;5098994;28;20240;-60
2022/01/29 00:29:44;;;;;;;8.33;5.20;;;;;;;1.72;100.00;96794.31;5098488;28;20207;-53
2022/01/29 00:32:11;;;;;;;9.93;5.10;;;;;;;1.72;100.00;96786.22;5115717;28;20188;-53
2022/01/29 00:34:37;;;;;;;8.40;5.23;;;;;;;1.69;100.00;96784.16;5115619;28;20620;-52
2022/01/29 00:37:03;;;;;;;7.23;5.27;;;;;;;1.69;100.00;96772.59;5098539;28;20183;-51
2022/01/29 00:39:28;;;;;;;7.87;4.80;;;;;;;1.70;100.00;96774.16;5098195;28;20211;-50
2022/01/29 00:41:54;;;;;;;8.67;5.27;;;;;;;1.69;100.00;96777.97;5098082;28;20240;-52
2022/01/29 00:44:20;;;;;;;8.10;4.67;;;;;;;1.66;100.00;96763.25;5098555;28;20216;-56
2022/01/29 00:46:45;;;;;;;8.17;4.70;;;;;;;1.67;100.00;96759.44;5115534;28;20194;-53
2022/01/29 00:49:12;;;;;;;7.37;4.83;;;;;;;1.65;100.00;96752.78;5114957;28;20533;-53
2022/01/29 00:51:38;;;;;;;8.30;4.90;;;;;;;1.64;100.00;96753.91;5098166;28;20193;-54
2022/01/29 00:54:04;;;;;;;7.50;4.63;;;;;;;1.62;100.00;96756.91;5115004;28;20198;-55
2022/01/29 00:56:30;;;;;;;9.67;5.07;;;;;;;1.59;100.00;96752.13;5097733;28;20313;-53
2022/01/29 00:58:55;;;;;;;7.83;4.97;;;;;;;1.58;100.00;96766.72;5097996;28;20193;-55
2022/01/29 01:01:21;;;;;;;8.20;4.90;;;;;;;1.54;100.00;96760.38;5097969;28;20192;-54
2022/01/29 01:03:46;;;;;;;9.33;5.30;;;;;;;1.51;100.00;96758.28;5097746;28;20262;-67
2022/01/29 01:06:11;;;;;;;9.00;5.40;;;;;;;1.45;100.00;96761.44;5097768;28;20240;-54
2022/01/29 01:08:37;;;;;;;9.60;5.13;;;;;;;1.40;100.00;96757.00;5097684;28;20179;-51
2022/01/29 01:11:04;;;;;;;10.33;5.70;;;;;;;1.36;100.00;96749.84;5114649;28;20201;-49
2022/01/29 01:13:30;;;;;;;12.57;5.87;;;;;;;1.34;100.00;96750.16;5097453;28;20201;-52
2022/01/29 01:15:56;;;;;;;10.87;6.33;;;;;;;1.32;100.00;96733.53;5097612;28;20228;-53
2022/01/29 01:18:21;;;;;;;11.30;5.90;;;;;;;1.30;100.00;96738.41;5098141;28;20274;-52
2022/01/29 01:20:47;;;;;;;9.37;5.50;;;;;;;1.30;100.00;96730.34;5114459;28;20195;-54
2022/01/29 01:23:13;;;;;;;10.70;5.97;;;;;;;1.28;100.00;96726.41;5114322;28;20209;-54
2022/01/29 01:25:38;;;;;;;9.10;5.63;;;;;;;1.27;100.00;96724.81;5097551;28;20268;-53
2022/01/29 01:28:03;;;;;;;10.43;5.87;;;;;;;1.25;100.00;96725.13;5115167;28;20252;-52
2022/01/29 01:30:29;;;;;;;9.47;6.20;;;;;;;1.24;100.00;96723.53;5097390;28;20210;-54
2022/01/29 01:32:54;;;;;;;11.07;5.83;;;;;;;1.21;100.00;96718.78;5097703;28;20238;-54
2022/01/29 01:35:25;;;;;;;8.33;5.53;;;;;;;1.21;100.00;96724.16;5097072;28;20200;-53
2022/01/29 01:38:14;;;;;;;10.17;5.33;;;;;;;1.19;100.00;96710.22;5097995;28;20172;-51
2022/01/29 01:40:42;;;;;;;8.13;5.20;;;;;;;1.22;100.00;96704.22;5115244;28;20193;-59
2022/01/29 01:43:08;;;;;;;10.83;5.70;;;;;;;1.24;100.00;96691.25;5114614;28;20210;-48
2022/01/29 01:45:33;;;;;;;10.27;5.33;;;;;;;1.27;100.00;96684.47;5114095;28;20557;-52
2022/01/29 01:47:58;;;;;;;9.03;5.40;;;;;;;1.27;100.00;96679.88;5097184;28;20224;-50
2022/01/29 01:50:25;;;;;;;8.83;5.33;;;;;;;1.30;100.00;96676.56;5097514;28;20190;-52
2022/01/29 01:52:50;;;;;;;8.13;5.30;;;;;;;1.31;100.00;96669.28;5114092;28;20284;-48
2022/01/29 01:55:17;;;;;;;9.67;6.27;;;;;;;1.32;100.00;96668.97;5096984;28;20199;-48
2022/01/29 01:57:43;;;;;;;7.80;5.07;;;;;;;1.32;100.00;96666.28;5097503;28;20184;-49
2022/01/29 02:00:09;;;;;;;7.43;4.73;;;;;;;1.32;100.00;96666.28;5097243;28;20197;-53
2022/01/29 02:02:34;;;;;;;10.80;5.67;;;;;;;1.30;100.00;96652.34;5113884;28;20182;-53
2022/01/29 02:05:00;;;;;;;8.00;5.37;;;;;;;1.29;100.00;96650.75;5096766;28;20195;-54
2022/01/29 02:07:25;;;;;;;9.53;6.03;;;;;;;1.29;100.00;96648.06;5097299;28;20237;-53
2022/01/29 02:09:50;;;;;;;8.83;5.10;;;;;;;1.30;100.00;96641.59;5096407;28;20534;-53
2022/01/29 02:12:16;;;;;;;8.10;5.23;;;;;;;1.25;100.00;96641.75;5113761;28;20278;-55
2022/01/29 02:14:44;;;;;;;7.57;4.80;;;;;;;1.28;100.00;96648.38;5114750;28;20268;-52
2022/01/29 02:17:09;;;;;;;9.10;5.77;;;;;;;1.25;100.00;96643.63;5096560;28;20432;-66
2022/01/29 02:19:35;;;;;;;10.30;5.37;;;;;;;1.26;100.00;96648.69;5096397;28;20194;-66
2022/01/29 02:22:01;;;;;;;8.83;4.83;;;;;;;1.27;100.00;96646.81;5096564;28;20188;-66
2022/01/29 02:24:26;;;;;;;9.50;5.50;;;;;;;1.29;100.00;96637.31;5096543;28;20215;-66
2022/01/29 02:26:53;;;;;;;7.90;5.10;;;;;;;1.25;100.00;96630.97;5096604;28;20196;-66
2022/01/29 02:29:19;;;;;;;10.53;5.03;;;;;;;1.26;100.00;96613.72;5113447;28;20668;-66
2022/01/29 02:31:51;;;;;;;8.77;5.10;;;;;;;1.27;100.00;96609.94;5096415;28;20200;-66
2022/01/29 02:34:17;;;;;;;8.47;5.20;;;;;;;1.27;100.00;96604.53;5096404;28;20189;-56
2022/01/29 02:36:43;;;;;;;9.33;4.97;;;;;;;1.30;100.00;96612.00;5113965;28;20198;-57
2022/01/29 02:39:13;;;;;;;6.00;4.73;;;;;;;1.29;100.00;96606.91;5113609;28;20190;-53
2022/01/29 02:41:43;;;;;;;9.80;5.10;;;;;;;1.28;100.00;96608.84;5112889;28;20550;-56
2022/01/29 02:44:09;;;;;;;9.27;4.93;;;;;;;1.27;100.00;96609.94;5096707;28;20209;-55
2022/01/29 02:46:54;;;;;;;7.93;4.67;;;;;;;1.26;100.00;96608.34;5096807;28;20190;-53
2022/01/29 02:49:23;;;;;;;8.70;4.80;;;;;;;1.28;100.00;96600.78;5096686;28;20238;-55
2022/01/29 02:51:56;;;;;;;7.63;5.07;;;;;;;1.31;100.00;96589.34;5113212;28;20293;-66
2022/01/29 02:54:23;;;;;;;6.70;4.70;;;;;;;1.30;100.00;96593.16;5112895;28;20257;-66
2022/01/29 02:56:49;;;;;;;8.47;4.73;;;;;;;1.28;100.00;96590.00;5096242;28;20186;-55
2022/01/29 02:59:15;;;;;;;8.40;5.13;;;;;;;1.27;100.00;96599.16;5096527;28;20204;-54
2022/01/29 03:01:42;;;;;;;8.63;5.33;;;;;;;1.24;100.00;96602.47;5096226;28;20194;-53
2022/01/29 03:04:08;;;;;;;10.53;5.10;;;;;;;1.27;100.00;96614.53;5096332;28;20216;-54
2022/01/29 03:06:34;;;;;;;9.23;4.83;;;;;;;1.27;100.00;96604.53;5096230;28;20188;-55
2022/01/29 03:09:00;;;;;;;6.30;4.50;;;;;;;1.26;100.00;96597.59;5096057;28;20223;-54
2022/01/29 03:11:25;;;;;;;8.87;4.93;;;;;;;1.25;100.00;96600.59;5096630;28;20277;-67
2022/01/29 03:13:51;;;;;;;7.77;4.90;;;;;;;1.22;100.00;96585.88;5112833;28;20770;-53
2022/01/29 03:16:17;;;;;;;6.33;4.40;;;;;;;1.21;100.00;96570.06;5112923;28;20193;-52
2022/01/29 03:18:43;;;;;;;7.27;4.80;;;;;;;1.19;100.00;96564.97;5113912;28;20190;-52
2022/01/29 03:21:09;;;;;;;8.00;4.60;;;;;;;1.16;100.00;96560.22;5098754;28;20186;-49
2022/01/29 03:23:35;;;;;;;8.03;4.70;;;;;;;1.15;100.00;96557.84;5099347;28;20228;-55
2022/01/29 03:26:00;;;;;;;6.73;4.37;;;;;;;1.11;100.00;96559.59;5116442;28;20230;-52
2022/01/29 03:28:27;;;;;;;6.40;4.70;;;;;;;1.07;100.00;96555.94;5099873;28;20186;-59
2022/01/29 03:30:52;;;;;;;7.87;4.93;;;;;;;1.01;100.00;96563.38;5116058;28;20744;-57
2022/01/29 03:33:17;;;;;;;6.73;4.60;;;;;;;0.97;100.00;96565.09;5116295;28;20198;-55
2022/01/29 03:35:43;;;;;;;7.03;4.37;;;;;;;0.95;100.00;96567.28;5116236;28;20275;-54
2022/01/29 03:38:08;;;;;;;5.90;3.90;;;;;;;0.93;100.00;96558.78;5099418;28;20210;-50
2022/01/29 03:40:35;;;;;;;7.50;4.33;;;;;;;0.89;100.00;96554.31;5099090;28;20220;-50
2022/01/29 03:43:04;;;;;;;6.97;4.80;;;;;;;0.83;100.00;96560.97;5099055;28;20212;-52
2022/01/29 03:45:30;;;;;;;7.80;4.67;;;;;;;0.81;100.00;96550.53;5099007;28;20181;-51
2022/01/29 03:47:56;;;;;;;5.97;4.07;;;;;;;0.76;100.00;96553.34;5098967;28;20194;-70
2022/01/29 03:50:21;;;;;;;6.97;4.47;;;;;;;0.73;100.00;96553.97;5099116;28;20216;-59
2022/01/29 03:52:46;;;;;;;9.77;4.43;;;;;;;0.69;100.00;96549.53;5098733;28;20280;-60
2022/01/29 03:55:12;;;;;;;6.83;5.17;;;;;;;0.68;100.00;96538.00;5099045;28;20213;-59
2022/01/29 03:57:37;;;;;;;9.47;4.67;;;;;;;0.70;100.00;96549.22;5116241;28;20189;-59
2022/01/29 04:00:05;;;;;;;11.07;5.03;;;;;;;0.71;100.00;96550.00;5116152;28;20192;-59
2022/01/29 04:02:31;;;;;;;6.43;4.40;;;;;;;0.75;100.00;96549.06;5115773;28;20193;-59
2022/01/29 04:04:56;;;;;;;9.27;4.30;;;;;;;0.77;100.00;96544.19;5098817;28;20318;-59
2022/01/29 04:07:22;;;;;;;6.97;4.50;;;;;;;0.78;100.00;96543.09;5098790;28;20216;-54
2022/01/29 04:09:50;;;;;;;5.27;4.07;;;;;;;0.82;100.00;96543.22;5098596;28;20531;-54
2022/01/29 04:12:16;;;;;;;8.87;5.00;;;;;;;0.86;100.00;96538.81;5099337;28;20193;-55
2022/01/29 04:14:42;;;;;;;6.60;4.70;;;;;;;0.87;100.00;96522.38;5098655;28;20182;-54
2022/01/29 04:17:08;;;;;;;6.63;4.17;;;;;;;0.92;100.00;96508.00;5115562;28;20192;-55
2022/01/29 04:19:34;;;;;;;7.03;3.87;;;;;;;0.96;100.00;96512.44;5099015;28;20185;-50
2022/01/29 04:22:00;;;;;;;6.20;4.50;;;;;;;0.99;100.00;96517.19;5115710;28;20186;-53
2022/01/29 04:24:26;;;;;;;7.43;4.80;;;;;;;1.02;100.00;96511.16;5098436;28;20259;-53
2022/01/29 04:26:51;;;;;;;8.00;4.57;;;;;;;1.05;100.00;96520.53;5098532;28;20185;-55
2022/01/29 04:29:17;;;;;;;5.70;4.10;;;;;;;1.07;100.00;96516.41;5098418;28;20211;-55
2022/01/29 04:34:08;;;;;;;6.80;4.63;;;;;;;1.08;100.00;96514.50;5116228;28;20204;-56
2022/01/29 04:36:33;;;;;;;8.70;4.73;;;;;;;1.07;100.00;96510.22;5098497;28;20185;-53
2022/01/29 04:38:59;;;;;;;6.23;4.60;;;;;;;1.08;100.00;96511.81;5098537;28;20195;-52
2022/01/29 04:41:24;;;;;;;6.90;4.67;;;;;;;1.09;100.00;96502.66;5098389;28;20214;-55
2022/01/29 04:43:49;;;;;;;6.50;4.80;;;;;;;1.08;100.00;96504.53;5098366;28;20536;-61
2022/01/29 04:46:15;;;;;;;5.77;4.30;;;;;;;1.10;100.00;96502.34;5098106;28;20199;-54
2022/01/29 04:48:40;;;;;;;7.83;5.37;;;;;;;1.12;100.00;96500.13;5097645;28;20194;-55
2022/01/29 04:51:06;;;;;;;11.10;6.80;;;;;;;1.12;100.00;96510.06;5115169;28;20184;-55
2022/01/29 04:53:31;;;;;;;9.07;5.17;;;;;;;1.11;100.00;96511.97;5115975;28;20219;-56
2022/01/29 04:55:57;;;;;;;7.23;4.73;;;;;;;1.11;100.00;96509.28;5098431;28;20217;-55
2022/01/29 04:58:22;;;;;;;12.17;6.40;;;;;;;1.09;100.00;96516.88;5098010;28;20244;-55
2022/01/29 05:00:47;;;;;;;10.67;6.40;;;;;;;1.08;100.00;96504.53;5097975;28;20277;-54
2022/01/29 05:03:14;;;;;;;8.70;4.80;;;;;;;1.07;100.00;96491.41;5097676;28;20216;-70
2022/01/29 05:05:41;;;;;;;6.00;4.23;;;;;;;1.05;100.00;96499.78;5097800;28;20613;-53
2022/01/29 05:08:07;;;;;;;6.77;4.70;;;;;;;1.04;100.00;96503.59;5114953;28;20178;-50
2022/01/29 05:10:33;;;;;;;6.70;4.50;;;;;;;1.05;100.00;96507.84;5097736;28;20183;-54
2022/01/29 05:13:08;;;;;;;6.70;4.80;;;;;;;1.06;100.00;96506.75;5097852;28;20187;-55
2022/01/29 05:28:55;;;;;;;6.87;4.90;;;;;;;0.93;100.00;96496.94;5115575;28;20244;-56
2022/01/29 05:31:20;;;;;;;7.50;4.50;;;;;;;0.89;100.00;96490.63;5097357;28;20198;-55
2022/01/29 05:33:45;;;;;;;6.77;4.30;;;;;;;0.85;100.00;96489.66;5097203;28;20191;-55
2022/01/29 05:36:11;;;;;;;8.30;4.83;;;;;;;0.86;100.00;96488.53;5097753;28;20188;-56
2022/01/29 05:38:36;;;;;;;8.20;5.03;;;;;;;0.86;100.00;96491.22;5097328;28;20182;-53
2022/01/29 05:41:03;;;;;;;7.87;4.60;;;;;;;0.86;100.00;96474.31;5097343;28;20221;-51
2022/01/29 05:43:29;;;;;;;7.27;4.53;;;;;;;0.87;100.00;96481.28;5096423;28;20672;-51
2022/01/29 05:45:54;;;;;;;6.23;4.70;;;;;;;0.87;100.00;96473.22;5097303;28;20267;-50
2022/01/29 05:48:20;;;;;;;5.37;4.50;;;;;;;0.88;100.00;96472.09;5097111;28;20186;-50
2022/01/29 05:50:45;;;;;;;8.60;4.47;;;;;;;0.90;100.00;96475.25;5097035;28;20250;-49
2022/01/29 05:53:10;;;;;;;8.13;4.67;;;;;;;0.91;100.00;96483.00;5097049;28;20283;-49
2022/01/29 05:55:36;;;;;;;7.57;4.60;;;;;;;0.91;100.00;96474.94;5097001;28;20190;-66
2022/01/29 05:58:01;;;;;;;7.20;4.37;;;;;;;0.93;100.00;96475.44;5096858;28;20237;-60
2022/01/29 06:00:26;;;;;;;6.50;4.30;;;;;;;0.95;100.00;96477.81;5097006;28;20246;-61
2022/01/29 06:03:07;;;;;;;6.87;4.70;;;;;;;0.97;100.00;96465.63;5096897;28;20292;-61
2022/01/29 06:05:33;;;;;;;5.60;4.07;;;;;;;0.97;100.00;96476.38;5096791;28;20232;-61
2022/01/29 06:07:58;;;;;;;6.60;4.10;;;;;;;0.98;100.00;96472.56;5096801;28;20276;-60
2022/01/29 06:10:25;;;;;;;6.83;4.23;;;;;;;0.99;100.00;96474.19;5096827;28;20198;-60
2022/01/29 06:13:08;;;;;;;6.83;4.30;;;;;;;1.00;100.00;96474.94;5096483;28;20752;-61
2022/01/29 06:15:39;;;;;;;7.57;4.67;;;;;;;0.99;100.00;96479.56;5113941;28;20217;-63
2022/01/29 06:18:05;;;;;;;9.73;5.00;;;;;;;0.98;100.00;96472.56;5097075;28;20241;-49
2022/01/29 06:20:31;;;;;;;9.27;4.37;;;;;;;0.98;100.00;96472.56;5096664;28;20193;-52
2022/01/29 06:22:57;;;;;;;7.23;4.80;;;;;;;0.98;100.00;96461.06;5096461;28;20212;-52
2022/01/29 06:25:22;;;;;;;5.50;4.07;;;;;;;0.96;100.00;96472.13;5096934;28;20185;-52
2022/01/29 06:27:48;;;;;;;6.57;3.80;;;;;;;0.97;100.00;96480.97;5096459;28;20239;-49
2022/01/29 06:30:14;;;;;;;9.53;4.50;;;;;;;0.97;100.00;96473.69;5113569;28;20208;-47
2022/01/29 06:32:40;;;;;;;8.23;4.47;;;;;;;0.96;100.00;96474.00;5096402;28;20182;-54
2022/01/29 06:35:06;;;;;;;8.23;4.57;;;;;;;0.97;100.00;96472.88;5096472;28;20606;-61
2022/01/29 06:37:31;;;;;;;4.83;3.90;;;;;;;0.97;100.00;96471.00;5096391;28;20644;-55
2022/01/29 06:39:56;;;;;;;6.57;3.90;;;;;;;0.99;100.00;96479.56;5096457;28;20582;-53
2022/01/29 06:42:21;;;;;;;6.53;4.20;;;;;;;1.02;100.00;96473.53;5096669;28;20233;-53
2022/01/29 06:44:47;;;;;;;5.83;3.73;;;;;;;1.05;100.00;96470.22;5096812;28;20206;-55
2022/01/29 06:47:12;;;;;;;9.13;4.77;;;;;;;1.09;100.00;96463.09;5096233;28;20182;-53
2022/01/29 06:49:38;;;;;;;8.23;4.87;;;;;;;1.13;100.00;96466.72;5096546;28;20218;-56
2022/01/29 06:52:03;;;;;;;4.60;3.60;;;;;;;1.18;100.00;96460.41;5113350;28;20175;-69
2022/01/29 06:54:29;;;;;;;5.37;3.70;;;;;;;1.23;100.00;96450.28;5112951;28;20190;-65
2022/01/29 06:56:55;;;;;;;5.27;3.60;;;;;;;1.32;100.00;96456.47;5096171;28;20189;-65
2022/01/29 06:59:20;;;;;;;5.97;3.63;;;;;;;1.40;100.00;96452.97;5096205;28;20247;-72
2022/01/29 07:01:45;;;;;;;5.47;3.60;;;;;;;1.51;100.00;96454.22;5096393;28;20184;-72
2022/01/29 07:04:11;;;;;;;6.20;3.30;;;;;;;1.60;100.00;96454.97;5096377;28;20204;-70
2022/01/29 07:06:36;;;;;;;5.97;3.00;;;;;;;1.66;100.00;96451.03;5113795;28;20186;-71
2022/01/29 07:09:02;;;;;;;4.83;2.90;;;;;;;1.78;100.00;96448.44;5113051;28;20175;-51
2022/01/29 07:11:28;;;;;;;10.47;5.70;;;;;;;1.89;100.00;96438.91;5113225;28;20194;-67
2022/01/29 07:14:01;;;;;;;5.53;2.87;;;;;;;2.01;100.00;96436.31;5096666;28;20183;-54
2022/01/29 07:16:28;;;;;;;4.07;2.80;;;;;;;2.14;100.00;96437.22;5113273;28;20180;-52
2022/01/29 07:18:53;;;;;;;7.60;3.63;;;;;;;2.26;100.00;96438.13;5095746;28;20183;-53
2022/01/29 07:21:19;;;;;;;4.73;3.33;;;;;;;2.34;100.00;96439.22;5095872;28;20194;-57
2022/01/29 07:23:44;;;;;;;4.77;3.10;;;;;;;2.39;100.00;96437.13;5095864;28;20205;-53
2022/01/29 07:26:09;;;;;;;3.10;2.63;;;;;;;2.47;100.00;96444.38;5095498;28;20180;-52
2022/01/29 07:28:35;;;;;;;3.67;2.57;;;;;;;2.50;100.00;96432.94;5095891;28;20186;-55
2022/01/29 07:31:01;;;;;;;3.93;2.40;;;;;;;2.57;100.00;96438.59;5095385;28;20208;-71
2022/01/29 07:33:27;;;;;;;2.70;1.90;;;;;;;2.62;100.00;96435.72;5113081;28;20186;-71
2022/01/29 07:35:55;;;;;;;3.80;2.30;;;;;;;2.69;100.00;96435.19;5113158;28;20233;-72
2022/01/29 07:38:20;;;;;;;3.57;2.60;;;;;;;2.72;100.00;96429.94;5096194;28;20193;-74
2022/01/29 07:40:45;;;;;;;4.37;3.00;;;;;;;2.81;100.00;96429.88;5096154;28;20184;-71
2022/01/29 07:43:11;;;;;;;6.13;3.13;;;;;;;2.86;100.00;96441.28;5095447;28;20199;-72
2022/01/29 07:45:36;;;;;;;14.43;8.43;;;;;;;2.98;100.00;96448.63;5095731;28;20282;-50
2022/01/29 07:48:01;;;;;;;5.43;3.97;;;;;;;3.06;100.00;96458.59;5095681;28;20287;-54
2022/01/29 07:50:27;;;;;;;7.87;4.90;;;;;;;3.16;100.00;96460.88;5095270;28;20176;-59
2022/01/29 07:52:54;;;;;;;3.53;2.57;;;;;;;3.29;100.00;96454.44;5095358;28;20210;-58
2022/01/29 07:55:20;;;;;;;4.17;2.20;;;;;;;3.44;100.00;96462.72;5095427;28;20184;-59
2022/01/29 07:57:46;;;;;;;4.00;2.67;;;;;;;3.56;100.00;96450.38;5095803;28;20213;-58
2022/01/29 08:00:12;;;;;;;6.97;2.73;;;;;;;3.61;100.00;96455.56;5095802;28;20188;-58
2022/01/29 08:02:37;;;;;;;6.90;3.97;;;;;;;3.67;100.00;96456.94;5094721;28;20188;-57
2022/01/29 08:05:03;;;;;;;5.23;3.03;;;;;;;3.80;100.00;96455.84;5095068;28;20191;-59
2022/01/29 08:07:28;;;;;;;4.40;2.20;;;;;;;3.87;100.00;96459.59;5097085;28;20227;-53
2022/01/29 08:09:54;;;;;;;6.57;3.80;;;;;;;4.00;100.00;96463.13;5099179;28;20175;-54
2022/01/29 08:12:19;;;;;;;4.13;3.07;;;;;;;4.05;100.00;96450.19;5115380;28;20183;-52
2022/01/29 08:14:44;;;;;;;4.67;2.40;;;;;;;4.00;100.00;96442.28;5098762;28;20171;-50
2022/01/29 08:17:10;;;;;;;4.90;2.23;;;;;;;4.07;100.00;96441.75;5098414;28;20179;-53
2022/01/29 08:19:35;;;;;;;4.23;2.10;;;;;;;4.01;100.00;96443.06;5099244;28;20179;-49
2022/01/29 08:22:00;;;;;;;6.70;3.60;;;;;;;3.96;100.00;96435.97;5115458;28;20631;-51
2022/01/29 08:24:26;;;;;;;4.97;2.53;;;;;;;3.96;100.00;96446.00;5115858;28;20229;-58
2022/01/29 08:26:51;;;;;;;3.07;2.20;;;;;;;3.92;100.00;96432.34;5116360;28;20203;-62
2022/01/29 08:29:16;;;;;;;3.17;2.43;;;;;;;3.88;100.00;96439.56;5098170;28;20553;-63
2022/01/29 08:31:42;;;;;;;12.13;3.70;;;;;;;3.89;100.00;96434.94;5098886;28;20218;-60
2022/01/29 08:34:07;;;;;;;5.47;2.30;;;;;;;3.88;100.00;96433.34;5115142;28;20187;-59
2022/01/29 08:36:33;;;;;;;10.07;4.27;;;;;;;3.90;100.00;96418.41;5098341;28;20221;-60
2022/01/29 08:38:58;;;;;;;3.93;2.90;;;;;;;3.91;100.00;96421.88;5115669;28;20188;-60
2022/01/29 08:41:24;;;;;;;21.63;11.63;;;;;;;3.93;100.00;96414.25;5097979;28;20274;-65
2022/01/29 08:43:49;;;;;;;6.27;3.07;;;;;;;3.91;100.00;96421.88;5098094;28;20229;-58
2022/01/29 08:46:14;;;;;;;5.47;2.77;;;;;;;3.95;100.00;96422.78;5115544;28;20244;-57
2022/01/29 08:48:40;;;;;;;3.03;2.03;;;;;;;4.03;100.00;96413.78;5098426;28;20222;-52
2022/01/29 08:51:06;;;;;;;6.30;2.50;;;;;;;4.04;100.00;96420.78;5098040;28;20245;-53
2022/01/29 08:53:31;;;;;;;3.10;2.03;;;;;;;4.13;100.00;96424.97;5115161;28;20287;-48
2022/01/29 08:55:56;;;;;;;4.23;2.23;;;;;;;4.20;100.00;96416.28;5114960;28;20179;-51
2022/01/29 08:58:22;;;;;;;4.23;2.37;;;;;;;4.31;100.00;96412.81;5098092;28;20188;-49
2022/01/29 09:00:47;;;;;;;5.00;2.40;;;;;;;4.38;100.00;96425.75;5097820;28;20219;-47
2022/01/29 09:03:15;;;;;;;7.03;3.20;;;;;;;4.44;100.00;96414.38;5114496;28;20245;-58
2022/01/29 09:05:43;;;;;;;2.90;2.57;;;;;;;4.55;100.00;96412.03;5097818;28;20188;-60
2022/01/29 09:08:09;;;;;;;4.40;2.43;;;;;;;4.62;100.00;96409.53;5115054;28;20207;-58
2022/01/29 09:10:34;;;;;;;6.53;3.37;;;;;;;4.67;100.00;96409.28;5114733;28;20189;-57
2022/01/29 09:12:59;;;;;;;4.23;2.00;;;;;;;4.68;100.00;96408.97;5114520;28;20195;-59
2022/01/29 09:15:25;;;;;;;4.30;2.47;;;;;;;4.75;100.00;96401.06;5097792;28;20183;-61
2022/01/29 09:17:50;;;;;;;3.40;1.90;;;;;;;4.78;100.00;96391.47;5097634;28;20192;-48
2022/01/29 09:20:16;;;;;;;7.80;2.13;;;;;;;4.81;100.00;96402.38;5098158;28;20190;-57
2022/01/29 09:22:41;;;;;;;4.63;2.30;;;;;;;4.92;100.00;96398.06;5097921;28;20196;-64
2022/01/29 09:25:07;;;;;;;4.97;1.90;;;;;;;4.93;100.00;96398.88;5097393;28;20269;-66
2022/01/29 09:27:32;;;;;;;5.77;2.70;;;;;;;4.94;100.00;96384.22;5114606;28;20587;-64
2022/01/29 09:29:58;;;;;;;2.80;1.80;;;;;;;4.97;100.00;96384.31;5114737;28;20232;-63
2022/01/29 09:32:24;;;;;;;3.23;2.27;;;;;;;5.04;100.00;96381.03;5114742;28;20581;-66
2022/01/29 09:34:49;;;;;;;7.10;3.97;;;;;;;5.10;100.00;96382.38;5114130;28;20176;-65
2022/01/29 09:37:15;;;;;;;10.33;3.90;;;;;;;5.13;100.00;96387.88;5114151;28;20173;-52
2022/01/29 09:39:42;;;;;;;5.70;1.83;;;;;;;5.19;100.00;96385.72;5114877;28;20510;-56
2022/01/29 09:42:09;;;;;;;5.73;1.90;;;;;;;5.25;100.00;96378.94;5115035;28;20222;-58
2022/01/29 09:44:35;;;;;;;6.67;2.03;;;;;;;5.30;100.00;96381.38;5096918;28;20240;-58
2022/01/29 09:47:04;;;;;;;6.67;1.87;;;;;;;5.28;98.52;96378.25;5113881;28;20192;-56
2022/01/29 09:49:34;;;;;;;3.00;1.70;;;;;;;5.29;97.91;96374.41;5113870;28;20195;-57
2022/01/29 09:52:01;;;;;;;4.40;1.50;;;;;;;5.25;95.41;96384.34;5114060;28;20222;-59
2022/01/29 09:54:26;;;;;;;2.80;1.90;;;;;;;5.26;95.67;96383.22;5114073;28;20192;-58
2022/01/29 09:56:52;;;;;;;3.30;1.77;;;;;;;5.32;92.80;96389.97;5097104;28;20233;-53
2022/01/29 09:59:17;;;;;;;3.20;1.87;;;;;;;5.33;89.66;96388.81;5113888;28;20188;-52
2022/01/29 10:01:42;;;;;;;3.43;1.37;;;;;;;5.32;90.41;96395.38;5096988;28;20553;-56
2022/01/29 10:04:08;;;;;;;2.90;1.83;;;;;;;5.38;91.58;96393.97;5113919;28;20303;-54
2022/01/29 10:06:35;;;;;;;3.30;1.87;;;;;;;5.39;91.78;96385.50;5114027;28;20182;-50
2022/01/29 10:09:06;;;;;;;2.93;1.10;;;;;;;5.47;87.84;96392.69;5113915;28;20185;-51
2022/01/29 10:11:32;;;;;;;4.37;1.43;;;;;;;5.50;86.71;96396.66;5097364;28;20192;-50
2022/01/29 10:14:00;;;;;;;3.67;1.30;;;;;;;5.49;87.63;96400.47;5097045;28;20241;-48
2022/01/29 10:16:27;;;;;;;2.50;1.53;;;;;;;5.50;88.38;96397.44;5113702;28;20180;-67
2022/01/29 10:19:05;;;;;;;7.90;5.47;;;;;;;5.53;87.93;96393.22;5096814;28;20222;-68
2022/01/29 10:21:36;;;;;;;6.90;4.10;;;;;;;5.59;88.83;96399.97;5096763;28;20270;-71
2022/01/29 10:24:06;;;;;;;7.53;2.23;;;;;;;5.68;86.22;96393.28;5096393;28;20213;-69
2022/01/29 10:26:38;;;;;;;5.03;3.10;;;;;;;5.66;87.15;96390.13;5096513;28;20211;-71
2022/01/29 10:29:07;;;;;;;5.17;2.10;;;;;;;5.74;85.20;96388.38;5113456;28;20233;-74
2022/01/29 10:31:39;;;;;;;3.87;1.77;;;;;;;5.73;82.22;96378.69;5096334;28;20279;-51
2022/01/29 10:34:19;;;;;;;1.67;1.10;;;;;;;5.72;82.46;96379.84;5096651;28;20645;-59
2022/01/29 10:36:45;;;;;;;1.73;1.27;;;;;;;5.72;81.38;96387.97;5114067;28;20271;-52
2022/01/29 10:39:11;;;;;;;2.80;1.23;;;;;;;5.75;82.39;96387.25;5113649;28;20203;-54
2022/01/29 10:41:36;;;;;;;2.17;1.30;;;;;;;5.73;79.95;96381.41;5113523;28;20180;-52
2022/01/29 10:46:44;;;;;;;4.57;1.57;;;;;;;5.88;79.87;96375.25;5114390;28;20194;-53
2022/01/29 10:49:26;;;;;;;6.67;2.47;;;;;;;5.88;81.37;96383.38;5095881;28;20708;-58
2022/01/29 10:52:12;;;;;;;2.53;1.33;;;;;;;5.88;81.68;96376.03;5096657;28;20184;-75
2022/01/29 10:54:40;;;;;;;2.97;1.57;;;;;;;5.93;79.00;96364.94;5113750;28;20185;-54
2022/01/29 10:57:08;;;;;;;5.70;1.50;;;;;;;5.93;77.94;96366.84;5096456;28;20185;-57
2022/01/29 10:59:55;;;;;;;4.43;1.63;;;;;;;5.97;78.32;96354.16;5095857;28;20180;-56
2022/01/29 11:02:26;;;;;;;2.87;1.20;;;;;;;6.03;77.82;96350.06;5095678;28;20200;-56
2022/01/29 11:04:51;;;;;;;2.80;1.73;;;;;;;6.09;78.23;96359.50;5096352;28;20201;-57
2022/01/29 11:07:18;;;;;;;2.10;1.20;;;;;;;6.13;75.25;96360.38;5096014;28;20659;-56
2022/01/29 11:09:52;;;;;;;1.60;1.17;;;;;;;6.21;75.78;96356.69;5112876;28;20299;-58
2022/01/29 11:12:28;;;;;;;3.20;1.07;;;;;;;6.24;74.15;96342.44;5114422;28;20178;-47
2022/01/29 11:14:56;;;;;;;1.40;1.00;;;;;;;6.27;74.86;96339.03;5113386;28;20188;-49
2022/01/29 11:17:25;;;;;;;1.77;1.30;;;;;;;6.29;74.33;96334.03;5095951;28;20177;-49
2022/01/29 11:19:51;;;;;;;3.27;1.20;;;;;;;6.35;73.91;96325.25;5113378;28;20182;-48
2022/01/29 11:22:26;;;;;;;3.60;1.43;;;;;;;6.49;73.32;96322.88;5095653;28;20188;-49
2022/01/29 11:24:59;;;;;;;1.20;1.10;;;;;;;6.57;71.17;96323.81;5095940;28;20294;-50
2022/01/29 11:27:30;;;;;;;2.87;1.30;;;;;;;6.64;70.04;96311.19;5096253;28;20214;-57
2022/01/29 11:30:08;;;;;;;3.17;1.10;;;;;;;6.71;70.77;96318.72;5095751;28;20219;-50
2022/01/29 11:32:35;;;;;;;1.47;1.23;;;;;;;6.80;70.44;96322.00;5112762;28;20201;-50
2022/01/29 11:35:08;;;;;;;1.10;0.90;;;;;;;6.83;68.80;96318.56;5112399;28;20243;-46
2022/01/29 11:38:01;;;;;;;1.77;1.10;;;;;;;6.89;70.24;96328.03;5095954;28;20200;-46
2022/01/29 11:40:49;;;;;;;1.90;1.20;;;;;;;6.95;67.88;96309.53;5095418;28;20198;-51
2022/01/29 11:43:14;;;;;;;1.67;1.20;;;;;;;6.92;67.91;96310.22;5084916;28;20214;-50
2022/01/29 11:46:05;;;;;;;2.37;1.10;;;;;;;7.05;66.12;96315.16;5099131;28;20205;-66
2022/01/29 11:48:50;;;;;;;1.57;1.20;;;;;;;7.16;66.12;96327.00;5099427;28;20242;-67
2022/01/29 11:51:43;;;;;;;1.70;1.30;;;;;;;7.44;66.76;96324.84;5099681;28;20656;-66